Muelle Paraguana, Venezuela
Current Conditions -  °F | °C
As of 4:00 PM on Sunday 23 Nov 2014 (Local Time) from TNCA Reporting Station
Few Clouds Few Clouds  
Wind Chill: 84°   Ceiling: Unl
Heat Index: 92°   Visibility: 6mi
Dew Point: 75°   Wind: 21mph
Humidity: 74%   Direction: 90°E
Pressure: 29.77"   Gusts: NA
Location:  11.78°N, 70.15°W
Report Text: TNCA 232000Z 09018KT 9999 FEW019 29/24 Q1008 A2979 NOSIG
Loading
Personal Weather Stations






























Interactive Weather Map New forecast layout! Learn more

10-Day Weather Forecast

Advertisements
Track Severe Weather on mobile